Time;durP1;ratioP1;P1;durP2;ratioP2;P2;SDS_P1;SDS_P2;PMS_P1;PMS_P2;Temp;Humidity;BMP_temperature;BMP_pressure;BME280_temperature;BME280_humidity;BME280_pressure;Samples;Min_cycle;Max_cycle;Signal;HPM_P1;HPM_P2
2023/06/06 00:00:37;;;;;;;4.60;2.60;;;;;;;-141.97;59.92;47599.81;5031739;28;20170;-81
2023/06/06 00:03:03;;;;;;;4.50;2.70;;;;;;;-141.97;60.13;47565.22;5031345;28;20201;-80
2023/06/06 00:05:29;;;;;;;7.13;2.70;;;;;;;-141.97;60.33;47588.28;5032152;28;20174;-80
2023/06/06 00:07:55;;;;;;;5.50;2.60;;;;;;;-141.97;60.09;47551.75;5032094;28;20161;-80
2023/06/06 00:10:20;;;;;;;7.50;2.80;;;;;;;-141.97;60.02;47555.59;5031579;28;20170;-80
2023/06/06 00:12:52;;;;;;;5.43;2.77;;;;;;;-141.97;60.49;47594.03;5031607;28;20193;-80
2023/06/06 00:15:19;;;;;;;5.53;2.70;;;;;;;-141.97;60.57;47669.00;5031761;28;20222;-80
2023/06/06 00:17:45;;;;;;;4.93;2.50;;;;;;;-141.97;60.69;47569.06;5032032;28;20605;-80
2023/06/06 00:20:12;;;;;;;6.33;2.73;;;;;;;-141.97;60.71;47722.81;5031895;28;20158;-79
2023/06/06 00:22:39;;;;;;;6.40;2.80;;;;;;;-141.97;61.02;47599.81;5031693;28;20197;-78
2023/06/06 00:25:05;;;;;;;5.00;2.73;;;;;;;-141.97;61.18;47557.53;5030940;28;20170;-80
2023/06/06 00:27:33;;;;;;;5.87;3.13;;;;;;;-141.97;60.93;47595.97;5031562;28;20532;-80
2023/06/06 00:29:58;;;;;;;7.17;2.97;;;;;;;-141.97;61.36;47599.81;5031190;28;20248;-80
2023/06/06 00:32:25;;;;;;;6.27;3.00;;;;;;;-141.97;61.51;47549.84;5031312;28;20272;-80
2023/06/06 00:34:50;;;;;;;5.17;3.10;;;;;;;-141.97;61.45;47557.53;5031530;28;20181;-79
2023/06/06 00:37:16;;;;;;;5.63;3.10;;;;;;;-141.97;61.78;47536.38;5041722;28;20186;-80
2023/06/06 00:39:42;;;;;;;4.93;3.00;;;;;;;-141.97;62.33;47551.75;5046157;28;20216;-80
2023/06/06 00:42:07;;;;;;;6.13;3.30;;;;;;;-141.97;62.30;47576.75;5032604;28;20268;-79
2023/06/06 00:44:33;;;;;;;6.40;3.37;;;;;;;-141.97;62.64;47619.03;5034080;28;20166;-80
2023/06/06 00:46:58;;;;;;;6.70;3.20;;;;;;;-141.97;62.56;47555.59;5015429;28;20647;-79
2023/06/06 00:49:24;;;;;;;7.80;3.57;;;;;;;-141.97;63.18;47605.56;5033253;28;20182;-80
2023/06/06 00:51:50;;;;;;;7.57;3.47;;;;;;;-141.97;63.04;47718.97;5035107;28;20240;-81
2023/06/06 00:54:17;;;;;;;6.20;3.13;;;;;;;-141.97;63.56;47594.03;5034495;28;20658;-81
2023/06/06 00:56:46;;;;;;;6.20;3.03;;;;;;;-141.97;63.84;47530.59;5034790;28;20162;-80
2023/06/06 00:59:13;;;;;;;7.67;3.47;;;;;;;-141.97;63.68;47580.59;5035082;28;20627;-80
2023/06/06 01:01:39;;;;;;;5.27;3.13;;;;;;;-141.97;63.99;47599.81;5034496;28;20203;-80
2023/06/06 01:04:09;;;;;;;5.37;3.20;;;;;;;-141.97;64.43;47592.13;5034437;28;20245;-80
2023/06/06 01:06:37;;;;;;;6.50;3.00;;;;;;;-141.97;64.41;47695.91;5033651;28;20181;-80
2023/06/06 01:09:05;;;;;;;5.73;3.13;;;;;;;-141.97;64.95;47617.09;5034636;28;20162;-80
2023/06/06 01:11:58;;;;;;;5.37;2.93;;;;;;;-141.97;65.04;47544.06;5034402;28;20174;-80
2023/06/06 01:14:50;;;;;;;5.27;2.90;;;;;;;-141.97;65.09;47534.44;5033386;28;20265;-80
2023/06/06 01:17:18;;;;;;;6.17;2.83;;;;;;;-141.97;65.20;47653.63;5011943;28;20195;-80
2023/06/06 01:19:48;;;;;;;6.40;3.00;;;;;;;-141.97;65.66;47582.50;5012244;28;20205;-80
2023/06/06 01:22:17;;;;;;;5.63;2.90;;;;;;;-141.97;65.60;47592.13;4996154;28;20190;-80
2023/06/06 01:24:45;;;;;;;4.43;2.90;;;;;;;-141.97;66.20;47515.22;5012292;28;20717;-80
2023/06/06 01:27:10;;;;;;;6.17;2.87;;;;;;;-141.97;66.33;47607.50;5012401;28;20174;-80
2023/06/06 01:29:36;;;;;;;5.50;2.63;;;;;;;-141.97;66.48;47561.38;5012626;28;20190;-80
2023/06/06 01:32:12;;;;;;;6.43;3.43;;;;;;;-141.97;66.63;47624.78;4995756;28;20190;-80
2023/06/06 01:34:50;;;;;;;6.87;2.90;;;;;;;-141.97;67.10;47569.06;5012640;28;20247;-80
2023/06/06 01:37:36;;;;;;;7.70;3.07;;;;;;;-141.97;67.76;47565.22;5012387;28;20228;-80
2023/06/06 01:40:05;;;;;;;5.67;2.90;;;;;;;-141.97;67.61;47565.22;5011932;28;20635;-80
2023/06/06 01:42:45;;;;;;;7.00;3.20;;;;;;;-141.97;67.85;47576.75;5012227;28;20230;-80
2023/06/06 01:45:13;;;;;;;7.37;3.33;;;;;;;-141.97;67.90;47530.59;5012545;28;20536;-79
2023/06/06 01:47:39;;;;;;;5.73;3.17;;;;;;;-141.97;68.03;47609.41;4995578;28;20225;-79
2023/06/06 01:50:07;;;;;;;5.50;3.10;;;;;;;-141.97;68.21;47549.84;5012186;28;20206;-80
2023/06/06 01:52:40;;;;;;;6.97;3.40;;;;;;;-141.97;68.42;47603.66;5011426;28;20195;-80
2023/06/06 01:55:07;;;;;;;5.90;3.20;;;;;;;-141.97;68.91;47594.03;5030402;28;20565;-79
2023/06/06 01:57:33;;;;;;;5.87;3.23;;;;;;;-141.97;69.15;47595.97;5033722;28;20231;-78
2023/06/06 01:59:59;;;;;;;6.43;3.50;;;;;;;-141.97;68.88;47603.66;5033502;28;20609;-78
2023/06/06 02:02:27;;;;;;;8.20;4.07;;;;;;;-141.97;69.38;47540.22;5033664;28;20237;-78
2023/06/06 02:04:52;;;;;;;8.00;3.80;;;;;;;-141.97;69.33;47580.59;5033484;28;20534;-78
2023/06/06 02:07:18;;;;;;;8.13;4.60;;;;;;;-141.97;69.58;47582.50;5033462;28;20184;-79
2023/06/06 02:09:44;;;;;;;6.47;4.40;;;;;;;-141.97;69.53;47569.06;5033563;28;20161;-79
2023/06/06 02:12:09;;;;;;;5.43;4.17;;;;;;;-141.97;69.45;47561.38;5033603;28;20170;-79
2023/06/06 02:14:35;;;;;;;6.43;4.23;;;;;;;-141.97;69.34;47569.06;5033393;28;20545;-80
2023/06/06 02:17:01;;;;;;;8.10;4.10;;;;;;;-141.97;69.95;47768.94;5033658;28;20184;-80
2023/06/06 02:19:27;;;;;;;7.70;4.00;;;;;;;-141.97;69.77;47588.28;5033720;28;20236;-80
2023/06/06 02:21:52;;;;;;;10.10;4.90;;;;;;;-141.97;69.86;47595.97;5032180;28;20177;-81
2023/06/06 02:24:18;;;;;;;8.47;4.53;;;;;;;-141.97;70.18;47576.75;5033003;28;20158;-79
2023/06/06 02:26:44;;;;;;;8.17;4.60;;;;;;;-141.97;70.50;47576.75;5033051;28;20162;-79
2023/06/06 02:29:10;;;;;;;8.73;4.50;;;;;;;-141.97;70.85;47609.41;5032767;28;20177;-79
2023/06/06 02:31:39;;;;;;;10.33;4.57;;;;;;;-141.97;70.96;47653.63;5032676;28;20166;-79
2023/06/06 02:34:04;;;;;;;11.67;5.97;;;;;;;-141.97;71.23;47576.75;5031671;28;20205;-79
2023/06/06 02:36:30;;;;;;;11.97;5.27;;;;;;;-141.97;71.13;47574.81;5032954;28;20166;-79
2023/06/06 02:38:56;;;;;;;9.87;5.27;;;;;;;-141.97;71.20;47617.09;5032472;28;20573;-80
2023/06/06 02:41:22;;;;;;;10.23;5.30;;;;;;;-141.97;71.56;47584.44;5032531;28;20295;-80
2023/06/06 02:43:48;;;;;;;8.83;4.90;;;;;;;-141.97;72.66;47580.59;5032496;28;20607;-79
2023/06/06 02:46:13;;;;;;;13.87;6.07;;;;;;;-141.97;73.18;47619.03;5032540;28;20607;-79
2023/06/06 02:48:39;;;;;;;10.23;5.83;;;;;;;-141.97;73.09;47557.53;5032845;28;20555;-79
2023/06/06 02:51:06;;;;;;;9.93;5.33;;;;;;;-141.97;73.34;47576.75;5032784;28;20166;-80
2023/06/06 02:53:32;;;;;;;11.40;5.23;;;;;;;-141.97;73.58;47630.56;5032472;28;20193;-80
2023/06/06 02:55:58;;;;;;;9.77;4.57;;;;;;;-141.97;73.45;47607.50;5032412;28;20543;-79
2023/06/06 02:58:28;;;;;;;7.93;4.53;;;;;;;-141.97;73.45;47684.38;5035629;28;20222;-82
2023/06/06 03:00:55;;;;;;;10.93;4.50;;;;;;;-141.97;73.51;47622.88;5054136;28;20177;-82
2023/06/06 03:03:21;;;;;;;10.97;4.63;;;;;;;-141.97;73.54;47644.00;5034437;28;20154;-81
2023/06/06 03:05:51;;;;;;;7.93;4.40;;;;;;;-141.97;73.42;47607.50;5032371;28;20162;-80
2023/06/06 03:08:17;;;;;;;9.07;5.50;;;;;;;-141.97;73.83;47592.13;5032165;28;20623;-79
2023/06/06 03:10:49;;;;;;;10.77;4.70;;;;;;;-141.97;74.24;47555.59;5031990;28;20166;-79
2023/06/06 03:13:15;;;;;;;7.83;3.73;;;;;;;-141.97;74.05;47584.44;5031077;28;20190;-78
2023/06/06 03:15:41;;;;;;;8.07;4.10;;;;;;;-141.97;74.03;47645.94;5032446;28;20252;-78
2023/06/06 03:18:20;;;;;;;9.50;4.13;;;;;;;-141.97;73.65;47609.41;5032034;28;20169;-78
2023/06/06 03:20:51;;;;;;;10.63;4.03;;;;;;;-141.97;73.57;47609.41;5031671;28;20181;-79
2023/06/06 03:23:17;;;;;;;10.90;4.00;;;;;;;-141.97;73.73;47607.50;5031755;28;20173;-79
2023/06/06 03:25:43;;;;;;;8.40;4.33;;;;;;;-141.97;73.59;47599.81;5031764;28;20166;-78
2023/06/06 03:28:10;;;;;;;11.77;4.30;;;;;;;-141.97;73.16;47576.75;5031394;28;20757;-78
2023/06/06 03:30:35;;;;;;;8.27;3.87;;;;;;;-141.97;73.36;47570.97;5031584;28;20200;-79
2023/06/06 03:33:01;;;;;;;9.47;3.90;;;;;;;-141.97;73.48;47684.38;5032274;28;20190;-79
2023/06/06 03:35:28;;;;;;;6.33;3.70;;;;;;;-141.97;73.04;47594.03;5031407;28;20173;-79
2023/06/06 03:37:55;;;;;;;7.17;3.60;;;;;;;-141.97;72.03;47590.19;5031692;28;20565;-78
2023/06/06 03:40:22;;;;;;;11.70;4.83;;;;;;;-141.97;72.23;47597.88;5031105;28;20514;-78
2023/06/06 03:42:49;;;;;;;8.47;4.23;;;;;;;-141.97;72.35;47553.69;5030860;28;20305;-78
2023/06/06 03:45:15;;;;;;;9.20;4.23;;;;;;;-141.97;71.84;47595.97;5031268;28;20647;-78
2023/06/06 03:47:41;;;;;;;7.20;3.80;;;;;;;-141.97;71.72;47542.16;5031182;28;20241;-78
2023/06/06 03:50:06;;;;;;;6.50;3.67;;;;;;;-141.97;71.24;47601.72;5031297;28;20209;-79
2023/06/06 03:52:32;;;;;;;8.07;4.07;;;;;;;-141.97;71.50;47628.63;5031271;28;20190;-79
2023/06/06 03:54:57;;;;;;;7.43;3.70;;;;;;;-141.97;70.64;47576.75;5030815;28;20170;-79
2023/06/06 03:57:23;;;;;;;10.50;3.50;;;;;;;-141.97;70.19;47580.59;5031156;28;20166;-79
2023/06/06 03:59:49;;;;;;;9.80;3.53;;;;;;;-141.97;69.98;47594.03;5031268;28;20609;-79
2023/06/06 04:02:17;;;;;;;8.43;3.60;;;;;;;-141.97;69.72;47588.28;5030756;28;20580;-78
2023/06/06 04:04:43;;;;;;;8.67;3.60;;;;;;;-141.97;69.03;47569.06;5031169;28;20154;-79
2023/06/06 04:07:11;;;;;;;8.00;3.73;;;;;;;-141.97;68.81;47572.91;5030788;28;20174;-78
2023/06/06 04:09:36;;;;;;;7.00;3.73;;;;;;;-141.97;68.33;47567.13;5030732;28;20166;-78
2023/06/06 04:12:02;;;;;;;7.10;3.50;;;;;;;-141.97;67.94;47592.13;5030850;28;20173;-78
2023/06/06 04:14:28;;;;;;;7.47;3.73;;;;;;;-141.97;67.55;47557.53;5031145;28;20158;-78
2023/06/06 04:16:53;;;;;;;9.57;3.73;;;;;;;-141.97;67.12;47599.81;5035185;28;20307;-77
2023/06/06 04:19:19;;;;;;;10.80;4.30;;;;;;;-141.97;67.80;47580.59;5034923;28;20165;-78
2023/06/06 04:21:45;;;;;;;8.03;4.00;;;;;;;-141.97;67.74;47569.06;5034753;28;20170;-78
2023/06/06 04:24:11;;;;;;;6.77;3.70;;;;;;;-141.97;67.18;47624.78;5034673;28;20216;-77
2023/06/06 04:26:36;;;;;;;7.57;3.67;;;;;;;-141.97;67.07;47592.13;5034938;28;20215;-79
2023/06/06 04:29:02;;;;;;;7.40;3.87;;;;;;;-141.97;66.33;47557.53;5034980;28;20158;-78
2023/06/06 04:31:29;;;;;;;7.30;4.00;;;;;;;-141.97;66.28;47626.72;5035449;28;20170;-78
2023/06/06 04:33:57;;;;;;;8.97;3.90;;;;;;;-141.97;65.34;47672.84;5034980;28;20273;-77
2023/06/06 04:36:26;;;;;;;7.20;3.90;;;;;;;-141.97;64.72;47619.03;5033416;28;20178;-78
2023/06/06 04:38:53;;;;;;;7.57;3.93;;;;;;;-141.97;64.80;47570.97;5034567;28;20158;-79
2023/06/06 04:41:22;;;;;;;5.97;3.37;;;;;;;-141.97;64.08;47605.56;5034463;28;20221;-78
2023/06/06 04:43:49;;;;;;;8.30;4.33;;;;;;;-141.97;63.67;47595.97;5013418;28;20324;-79
2023/06/06 04:46:23;;;;;;;7.20;3.97;;;;;;;-141.97;63.32;47572.91;5034514;28;20264;-78
2023/06/06 04:48:53;;;;;;;12.90;4.07;;;;;;;-141.97;63.31;47569.06;5033931;28;20173;-78
2023/06/06 04:51:33;;;;;;;10.03;3.73;;;;;;;-141.97;62.22;47559.44;5033918;28;20181;-77
2023/06/06 04:54:03;;;;;;;6.30;3.03;;;;;;;-141.97;61.80;47524.84;5033124;28;20197;-78
2023/06/06 04:56:29;;;;;;;6.77;3.27;;;;;;;-141.97;61.93;47565.22;5034038;28;20293;-79
2023/06/06 04:59:05;;;;;;;5.53;3.00;;;;;;;-141.97;61.26;47584.44;5033978;28;20876;-77
2023/06/06 05:01:36;;;;;;;8.43;3.80;;;;;;;-141.97;60.80;47570.97;5034340;28;20180;-78
2023/06/06 05:04:04;;;;;;;9.47;3.70;;;;;;;-141.97;61.63;47584.44;5033581;28;20182;-77
2023/06/06 05:06:31;;;;;;;5.63;3.20;;;;;;;-141.97;62.03;47534.44;5033728;28;20245;-78
2023/06/06 05:08:59;;;;;;;7.80;3.40;;;;;;;-141.97;62.20;47576.75;5034120;28;20174;-78
2023/06/06 05:11:25;;;;;;;7.60;3.30;;;;;;;-141.97;61.80;47576.75;5034053;28;20186;-79
2023/06/06 05:13:51;;;;;;;12.73;3.93;;;;;;;-141.97;61.51;47584.44;5033289;28;20255;-79
2023/06/06 05:16:16;;;;;;;8.90;3.50;;;;;;;-141.97;60.87;47597.88;5032670;28;20708;-80
2023/06/06 05:18:41;;;;;;;8.30;3.97;;;;;;;-141.97;60.16;47626.72;5034867;28;20606;-78
2023/06/06 05:21:08;;;;;;;8.00;3.37;;;;;;;-141.97;60.00;47576.75;5046722;28;20174;-79
2023/06/06 05:23:33;;;;;;;7.33;3.00;;;;;;;-141.97;60.34;47576.75;5047859;28;20166;-79
2023/06/06 05:25:59;;;;;;;5.67;3.70;;;;;;;-141.97;60.60;47580.59;5033675;28;20561;-79
2023/06/06 05:28:26;;;;;;;6.77;3.27;;;;;;;-141.97;60.57;47718.97;5032748;28;20170;-77
2023/06/06 05:30:52;;;;;;;7.13;3.10;;;;;;;-141.97;60.65;47530.59;5034569;28;20620;-77
2023/06/06 05:33:18;;;;;;;8.33;4.20;;;;;;;-141.97;60.46;47557.53;5033659;28;20198;-77
2023/06/06 05:35:47;;;;;;;6.53;3.47;;;;;;;-141.97;60.61;47532.53;5033579;28;20184;-84
2023/06/06 05:38:12;;;;;;;8.90;3.30;;;;;;;-141.97;59.96;47549.84;5039811;28;20228;-87
2023/06/06 05:40:38;;;;;;;5.17;3.00;;;;;;;-141.97;59.52;47572.91;5035509;28;20166;-87
2023/06/06 05:43:03;;;;;;;7.83;3.00;;;;;;;-141.97;59.39;47415.28;5008881;28;20208;-86
2023/06/06 05:45:28;;;;;;;8.93;3.20;;;;;;;-141.97;60.46;47538.28;5034398;28;20174;-86
2023/06/06 05:47:54;;;;;;;9.87;3.10;;;;;;;-141.97;59.46;47492.16;5035183;28;20224;-86
2023/06/06 05:50:19;;;;;;;11.93;3.53;;;;;;;-141.97;58.65;47684.38;5033941;28;20209;-87
2023/06/06 05:52:45;;;;;;;6.40;3.13;;;;;;;-141.97;58.01;47615.19;5035782;28;20221;-86
2023/06/06 05:55:30;;;;;;;6.70;3.50;;;;;;;-141.97;57.04;47724.75;5034154;28;20177;-89
2023/06/06 05:57:55;;;;;;;7.47;3.70;;;;;;;-141.97;56.19;47747.81;5035382;28;20154;-87
2023/06/06 06:00:25;;;;;;;8.77;3.60;;;;;;;-141.97;55.92;47669.00;5033794;28;20169;-88
2023/06/06 06:02:51;;;;;;;6.70;3.90;;;;;;;-141.97;54.22;47507.53;5034699;28;20169;-87
2023/06/06 06:05:19;;;;;;;7.63;4.30;;;;;;;-141.97;54.98;47361.47;5034533;28;20178;-87
2023/06/06 06:07:47;;;;;;;5.77;3.80;;;;;;;-141.97;54.40;47492.16;5028881;28;20569;-87
2023/06/06 06:10:14;;;;;;;6.27;4.37;;;;;;;-141.97;53.90;47515.22;5022006;28;20732;-88
2023/06/06 06:12:40;;;;;;;12.37;4.60;;;;;;;-141.97;54.35;47722.81;5014269;28;20204;-88
2023/06/06 06:15:06;;;;;;;8.23;4.50;;;;;;;-141.97;53.85;47584.44;5027807;28;20540;-85
2023/06/06 06:17:32;;;;;;;13.73;4.70;;;;;;;-141.97;53.81;47499.84;5033450;28;20280;-86
2023/06/06 06:19:57;;;;;;;9.77;4.70;;;;;;;-141.97;53.42;47497.94;5032686;28;20251;-87
2023/06/06 06:22:23;;;;;;;7.17;4.23;;;;;;;-141.97;53.73;47597.88;5034604;28;20241;-87
2023/06/06 06:24:49;;;;;;;9.87;4.70;;;;;;;-141.97;54.05;47703.59;5034095;28;20169;-86
2023/06/06 06:27:15;;;;;;;10.97;5.00;;;;;;;-141.97;53.09;47576.75;5034404;28;20264;-87
2023/06/06 06:29:40;;;;;;;10.70;5.07;;;;;;;-141.97;52.38;47524.84;5034310;28;20202;-87
2023/06/06 06:32:06;;;;;;;8.97;5.10;;;;;;;-141.97;52.08;47572.91;5034583;28;20169;-87
2023/06/06 06:34:33;;;;;;;6.67;4.70;;;;;;;-141.97;51.36;47699.75;5032636;28;20178;-86
2023/06/06 06:36:59;;;;;;;7.77;5.03;;;;;;;-141.97;51.19;47682.47;5033256;28;20204;-87
2023/06/06 06:39:24;;;;;;;10.07;4.67;;;;;;;-141.97;51.29;47469.09;5032988;28;20163;-87
2023/06/06 06:41:52;;;;;;;7.00;4.30;;;;;;;-141.97;51.08;47584.44;5031980;28;20222;-85
2023/06/06 06:44:18;;;;;;;7.10;4.60;;;;;;;-141.97;51.65;47519.06;5023950;28;20241;-85
2023/06/06 06:46:43;;;;;;;11.40;4.80;;;;;;;-141.97;51.71;47565.22;5032758;28;20354;-85
2023/06/06 06:49:16;;;;;;;8.30;4.03;;;;;;;-141.97;51.74;47507.53;5033355;28;20638;-87
2023/06/06 06:51:42;;;;;;;7.70;3.97;;;;;;;-141.97;51.29;47457.56;5034766;28;20215;-87
2023/06/06 06:54:15;;;;;;;8.57;4.27;;;;;;;-141.97;49.45;47526.75;5035021;28;20194;-87
2023/06/06 06:56:41;;;;;;;9.27;4.23;;;;;;;-141.97;48.92;47469.09;5033078;28;20312;-87
2023/06/06 06:59:08;;;;;;;6.97;4.10;;;;;;;-141.97;48.53;47461.41;5033512;28;20252;-86
2023/06/06 07:01:37;;;;;;;11.53;4.70;;;;;;;-141.97;47.98;47492.16;5035189;28;20158;-87
2023/06/06 07:04:06;;;;;;;6.57;4.27;;;;;;;-141.97;48.31;47534.44;5032836;28;20166;-87
2023/06/06 07:06:34;;;;;;;7.10;4.17;;;;;;;-141.97;48.20;47634.41;5034642;28;20596;-87
2023/06/06 07:09:00;;;;;;;5.70;3.67;;;;;;;-141.97;46.58;47476.78;5032920;28;20200;-87
2023/06/06 07:11:30;;;;;;;8.23;3.60;;;;;;;-141.97;45.63;47661.31;5033121;28;20174;-87
2023/06/06 07:13:55;;;;;;;5.47;3.60;;;;;;;-141.97;45.19;47407.59;5032185;28;20208;-87
2023/06/06 07:16:23;;;;;;;6.03;3.83;;;;;;;-141.97;44.04;47357.63;5034595;28;20174;-87
2023/06/06 07:18:51;;;;;;;10.27;4.33;;;;;;;-141.97;44.40;47403.75;5034861;28;20158;-88
2023/06/06 07:21:19;;;;;;;9.07;4.20;;;;;;;-141.97;44.08;47534.44;5033812;28;20619;-88
2023/06/06 07:23:47;;;;;;;8.00;4.33;;;;;;;-141.97;44.20;47403.75;5031692;28;20177;-88
2023/06/06 07:26:13;;;;;;;6.10;4.20;;;;;;;-141.97;43.87;47705.53;5031794;28;20260;-89
2023/06/06 07:28:39;;;;;;;5.80;3.60;;;;;;;-141.97;42.97;47534.44;5033536;28;20209;-89
2023/06/06 07:31:04;;;;;;;5.40;3.70;;;;;;;-141.97;42.64;47538.28;5033000;28;20194;-88
2023/06/06 07:33:30;;;;;;;6.07;3.13;;;;;;;-141.97;42.02;47534.44;5033321;28;20234;-88
2023/06/06 07:35:55;;;;;;;5.57;3.07;;;;;;;-141.97;42.71;47419.13;5033264;28;20166;-88
2023/06/06 07:38:21;;;;;;;7.77;3.30;;;;;;;-141.97;42.66;47480.63;5032404;28;20657;-87
2023/06/06 07:40:46;;;;;;;4.27;2.60;;;;;;;-141.97;42.00;47676.69;5038055;28;20642;-87
2023/06/06 07:43:12;;;;;;;8.37;2.67;;;;;;;-141.97;42.02;47480.63;5042369;28;20213;-86
2023/06/06 07:45:37;;;;;;;3.63;2.57;;;;;;;-141.97;42.67;47328.81;5048392;28;20174;-87
2023/06/06 07:48:03;;;;;;;5.80;2.30;;;;;;;-141.97;41.85;47398.00;5034409;28;20212;-87
2023/06/06 07:50:28;;;;;;;8.33;2.43;;;;;;;-141.97;41.75;47522.91;5033931;28;20237;-87
2023/06/06 07:52:54;;;;;;;3.80;2.50;;;;;;;-141.97;41.34;47515.22;5032867;28;20194;-86
2023/06/06 07:55:20;;;;;;;4.20;2.77;;;;;;;-141.97;41.59;47403.75;5032365;28;20269;-87
2023/06/06 07:57:46;;;;;;;4.07;2.30;;;;;;;-141.97;40.53;47357.63;5033182;28;20626;-86
2023/06/06 08:00:15;;;;;;;4.27;2.50;;;;;;;-141.97;41.47;47526.75;5030612;28;20241;-87
2023/06/06 08:02:40;;;;;;;5.60;2.80;;;;;;;-141.97;41.73;47476.78;5033991;28;20177;-88
2023/06/06 08:05:06;;;;;;;5.90;2.97;;;;;;;-141.97;41.69;47467.19;5032451;28;20166;-87
2023/06/06 08:07:38;;;;;;;5.57;2.80;;;;;;;-141.97;41.85;47501.78;5032313;28;20173;-87
2023/06/06 08:10:05;;;;;;;3.67;2.60;;;;;;;-141.97;41.26;47407.59;5032163;28;20503;-87
2023/06/06 08:12:31;;;;;;;4.67;2.40;;;;;;;-141.97;41.80;47549.84;5032150;28;20615;-87
2023/06/06 08:14:56;;;;;;;3.87;2.43;;;;;;;-141.97;41.26;47438.34;5033428;28;20681;-87
2023/06/06 08:17:22;;;;;;;7.23;2.60;;;;;;;-141.97;40.60;47699.75;5034681;28;20162;-87
2023/06/06 08:19:47;;;;;;;4.07;3.00;;;;;;;-141.97;40.44;47382.63;5035362;28;20154;-86
2023/06/06 08:22:13;;;;;;;6.37;2.80;;;;;;;-141.97;40.43;47348.03;5033200;28;20182;-86
2023/06/06 08:24:39;;;;;;;4.30;2.60;;;;;;;-141.97;41.24;47405.69;5033646;28;20194;-87
2023/06/06 08:27:05;;;;;;;4.00;2.70;;;;;;;-141.97;42.57;47507.53;5033476;28;20166;-86
2023/06/06 08:29:31;;;;;;;5.33;2.73;;;;;;;-141.97;42.21;47653.63;5032574;28;20193;-87
2023/06/06 08:31:56;;;;;;;3.60;2.43;;;;;;;-141.97;41.60;47622.88;5034520;28;20177;-86
2023/06/06 08:34:23;;;;;;;6.87;2.70;;;;;;;-141.97;41.43;47511.38;5034993;28;20218;-88
2023/06/06 08:36:49;;;;;;;7.90;2.70;;;;;;;-141.97;41.16;47484.47;5033377;28;20240;-88
2023/06/06 08:39:18;;;;;;;5.27;2.90;;;;;;;-141.97;41.03;47492.16;5031844;28;20170;-88
2023/06/06 08:41:51;;;;;;;6.83;3.07;;;;;;;-141.97;40.98;47471.03;5033699;28;20226;-86
2023/06/06 08:44:22;;;;;;;6.57;3.20;;;;;;;-141.97;41.15;47469.09;5032613;28;20162;-89
2023/06/06 08:46:52;;;;;;;5.63;2.80;;;;;;;-141.97;40.90;47517.16;5027268;28;20234;-87
2023/06/06 08:49:19;;;;;;;23.37;3.93;;;;;;;-141.97;40.80;47319.19;5035090;28;20174;-87
2023/06/06 08:51:46;;;;;;;5.00;2.50;;;;;;;-141.97;39.88;47365.31;5033290;28;20666;-87
2023/06/06 08:54:12;;;;;;;8.70;3.33;;;;;;;-141.97;41.39;47422.97;5033117;28;20229;-87
2023/06/06 08:56:38;;;;;;;7.13;3.07;;;;;;;-141.97;41.04;47651.69;5033761;28;20166;-88
2023/06/06 08:59:04;;;;;;;5.63;2.70;;;;;;;-141.97;40.79;47584.44;5034183;28;20181;-86
2023/06/06 09:01:30;;;;;;;6.63;2.90;;;;;;;-141.97;41.06;47499.84;5051814;28;20182;-88
2023/06/06 09:03:57;;;;;;;4.97;2.70;;;;;;;-141.97;40.15;47603.66;5037432;28;20177;-87
2023/06/06 09:06:23;;;;;;;10.03;2.80;;;;;;;-141.97;39.31;47371.09;5036073;28;20150;-86
2023/06/06 09:08:49;;;;;;;6.23;2.80;;;;;;;-141.97;39.62;47622.88;5035256;28;20208;-86
2023/06/06 09:11:17;;;;;;;5.60;2.60;;;;;;;-141.97;39.33;47388.38;5036075;28;20169;-87
2023/06/06 09:13:44;;;;;;;5.43;3.03;;;;;;;-141.97;39.58;47323.03;5035350;28;20240;-86
2023/06/06 09:16:10;;;;;;;5.10;2.90;;;;;;;-141.97;39.50;47419.13;5034635;28;20162;-86
2023/06/06 09:18:35;;;;;;;3.77;2.90;;;;;;;-141.97;38.68;47365.31;5034837;28;20170;-86
2023/06/06 09:21:02;;;;;;;4.10;2.80;;;;;;;-141.97;40.01;47365.31;5035337;28;20673;-87
2023/06/06 09:23:31;;;;;;;3.77;2.40;;;;;;;-141.97;37.99;47496.00;5036867;28;20228;-88
2023/06/06 09:25:57;;;;;;;4.97;2.67;;;;;;;-141.97;36.55;47284.59;5039260;28;20170;-87
2023/06/06 09:28:38;;;;;;;6.50;2.60;;;;;;;-141.97;36.73;47718.97;5039045;28;20168;-88
2023/06/06 09:31:27;;;;;;;4.23;2.70;;;;;;;-141.97;36.82;47474.88;5036759;28;20655;-88
2023/06/06 09:33:54;;;;;;;5.37;2.83;;;;;;;-141.97;37.48;47670.91;5036572;28;20280;-88
2023/06/06 09:36:28;;;;;;;5.97;2.70;;;;;;;-141.97;36.89;47711.28;5036092;28;20252;-87
2023/06/06 09:38:55;;;;;;;7.33;3.00;;;;;;;-141.97;35.83;47586.34;5041053;28;20168;-88
2023/06/06 09:41:21;;;;;;;5.60;3.00;;;;;;;-141.97;35.93;47451.81;5036619;28;20225;-89
2023/06/06 09:43:48;;;;;;;6.53;2.90;;;;;;;-141.97;35.71;47705.53;5036808;28;20189;-87
2023/06/06 09:46:17;;;;;;;4.70;3.00;;;;;;;-141.97;35.43;47521.00;5037424;28;20253;-88
2023/06/06 09:48:55;;;;;;;8.03;2.90;;;;;;;-141.97;35.05;47472.94;5026361;28;20659;-86
2023/06/06 09:51:21;;;;;;;4.20;2.80;;;;;;;-141.97;35.27;47342.25;5033723;28;20261;-88
2023/06/06 09:53:50;;;;;;;4.13;2.87;;;;;;;-141.97;34.87;47313.44;5035316;28;20593;-87
2023/06/06 09:56:21;;;;;;;6.23;3.00;;;;;;;-141.97;36.21;47469.09;5034856;28;20182;-87
2023/06/06 09:58:53;;;;;;;4.55;2.83;;;;;;;-141.97;34.81;47380.69;5034875;28;20644;-88
2023/06/06 10:01:24;;;;;;;5.32;3.50;;;;;;;-141.97;34.85;47311.50;5035100;28;20209;-88
2023/06/06 10:03:51;;;;;;;5.03;3.00;;;;;;;-141.97;33.16;47586.34;5048107;28;20163;-84
2023/06/06 10:06:17;;;;;;;6.65;3.13;;;;;;;-141.97;32.24;47478.72;5057577;28;20171;-86
2023/06/06 10:08:44;;;;;;;5.07;2.90;;;;;;;-141.97;32.00;47357.63;5042516;28;20321;-88
2023/06/06 10:11:10;;;;;;;6.53;2.90;;;;;;;-141.97;34.03;47699.75;5034178;28;20169;-88
2023/06/06 10:13:36;;;;;;;5.47;2.90;;;;;;;-141.97;34.40;47449.88;5032507;28;20195;-87
2023/06/06 10:16:04;;;;;;;7.45;3.38;;;;;;;-141.97;34.99;47503.69;5033111;28;20756;-87
2023/06/06 10:18:30;;;;;;;6.43;3.00;;;;;;;-141.97;35.13;47488.31;5033753;28;20164;-87
2023/06/06 10:20:56;;;;;;;5.53;3.00;;;;;;;-141.97;33.87;47453.72;5034114;28;20173;-86
2023/06/06 10:23:22;;;;;;;3.95;2.75;;;;;;;-141.97;32.63;47415.28;5037505;28;20539;-87
2023/06/06 10:25:48;;;;;;;4.20;2.70;;;;;;;-141.97;32.89;47340.34;5035270;28;20174;-87
2023/06/06 10:28:28;;;;;;;5.63;3.27;;;;;;;-141.97;34.51;47376.84;5034912;28;20252;-87
2023/06/06 10:31:15;;;;;;;4.70;3.50;;;;;;;-141.97;35.04;47486.41;5032716;28;20166;-87
2023/06/06 10:33:57;;;;;;;9.50;3.50;;;;;;;-141.97;34.19;47519.06;5014556;28;20674;-86
2023/06/06 10:36:22;;;;;;;5.70;3.07;;;;;;;-141.97;34.75;47357.63;5013323;28;20171;-85
2023/06/06 10:39:19;;;;;;;8.63;3.30;;;;;;;-141.97;34.08;47484.47;5015588;28;20525;-87
2023/06/06 10:42:10;;;;;;;7.07;3.13;;;;;;;-141.97;34.01;47476.78;5020351;28;20234;-86
2023/06/06 10:44:41;;;;;;;5.13;3.03;;;;;;;-141.97;34.73;47469.09;5031569;28;20198;-86
2023/06/06 10:47:23;;;;;;;8.30;3.20;;;;;;;-141.97;33.70;47449.88;5014584;28;20194;-86
2023/06/06 10:50:13;;;;;;;5.10;2.80;;;;;;;-141.97;33.66;47488.31;5022433;28;20717;-86
2023/06/06 10:52:51;;;;;;;5.90;2.95;;;;;;;-141.97;33.03;47492.16;5031320;28;20289;-86
2023/06/06 10:55:38;;;;;;;3.83;2.80;;;;;;;-141.97;33.98;47471.03;5031183;28;20190;-86
2023/06/06 10:58:04;;;;;;;6.93;3.10;;;;;;;-141.97;34.04;47461.41;5030329;28;20164;-85
2023/06/06 11:00:35;;;;;;;5.38;2.78;;;;;;;-141.97;33.84;47319.19;5031760;28;20197;-86
2023/06/06 11:03:05;;;;;;;5.18;2.83;;;;;;;-141.97;31.93;47365.31;5031006;28;20346;-85
2023/06/06 11:05:31;;;;;;;5.10;2.75;;;;;;;-141.97;31.84;47315.34;5031392;28;20180;-85
2023/06/06 11:08:02;;;;;;;4.38;2.90;;;;;;;-141.97;30.43;47461.41;5014873;28;20194;-85
2023/06/06 11:10:44;;;;;;;5.63;2.83;;;;;;;-141.97;29.95;47371.09;5014253;28;20171;-86
2023/06/06 11:13:28;;;;;;;2.88;2.28;;;;;;;-141.97;30.60;47611.34;5012266;28;20198;-86
2023/06/06 11:15:57;;;;;;;4.03;2.40;;;;;;;-141.97;30.49;47476.78;4996129;28;20197;-86
2023/06/06 11:19:00;;;;;;;3.03;2.47;;;;;;;-141.97;30.21;47459.50;5011536;28;20240;-85
2023/06/06 11:21:25;;;;;;;6.97;2.78;;;;;;;-141.97;30.60;47436.44;4956764;28;20188;-86